Time;durP1;ratioP1;P1;durP2;ratioP2;P2;SDS_P1;SDS_P2;PMS_P1;PMS_P2;Temp;Humidity;BMP_temperature;BMP_pressure;BME280_temperature;BME280_humidity;BME280_pressure;Samples;Min_cycle;Max_cycle;Signal;HPM_P1;HPM_P2
2022/03/01 00:01:40;;;;;;;40.85;18.73;;;2.40;99.90;;;;;;4999944;28;20050;-87
2022/03/01 00:04:06;;;;;;;40.92;17.88;;;2.40;99.90;;;;;;5017228;28;20038;-87
2022/03/01 00:06:32;;;;;;;52.65;20.02;;;2.40;99.90;;;;;;4999969;28;20038;-87
2022/03/01 00:08:58;;;;;;;47.20;19.83;;;2.40;99.90;;;;;;5000215;28;20468;-87
2022/03/01 00:11:24;;;;;;;39.78;19.35;;;2.40;99.90;;;;;;4999697;28;20438;-87
2022/03/01 00:13:50;;;;;;;48.05;20.48;;;2.40;99.90;;;;;;4999902;28;20057;-87
2022/03/01 00:16:16;;;;;;;47.03;20.42;;;2.30;99.90;;;;;;4999589;28;20077;-88
2022/03/01 00:18:43;;;;;;;49.78;20.25;;;2.40;99.90;;;;;;4999720;28;20129;-88
2022/03/01 00:21:08;;;;;;;47.08;21.20;;;2.40;99.90;;;;;;4999445;28;20104;-88
2022/03/01 00:23:34;;;;;;;46.65;18.65;;;2.40;99.90;;;;;;4999375;28;20033;-87
2022/03/01 00:26:00;;;;;;;49.97;20.70;;;2.30;99.90;;;;;;4999692;28;20050;-87
2022/03/01 00:28:25;;;;;;;39.55;18.50;;;2.30;99.90;;;;;;4999361;28;20052;-87
2022/03/01 00:30:51;;;;;;;50.70;19.75;;;2.40;99.90;;;;;;4999359;28;20069;-87
2022/03/01 00:33:16;;;;;;;50.20;20.88;;;2.30;99.90;;;;;;4999257;28;20061;-87
2022/03/01 00:35:42;;;;;;;51.30;22.08;;;2.30;99.90;;;;;;4999204;28;20050;-87
2022/03/01 00:38:08;;;;;;;45.92;19.58;;;2.30;99.90;;;;;;4999202;28;20516;-88
2022/03/01 00:40:33;;;;;;;52.38;22.05;;;2.30;99.90;;;;;;4999401;28;20046;-87
2022/03/01 00:42:59;;;;;;;48.17;21.52;;;2.30;99.90;;;;;;4999154;28;20057;-87
2022/03/01 00:45:25;;;;;;;52.85;22.20;;;2.20;99.90;;;;;;4999155;28;20050;-87
2022/03/01 00:47:50;;;;;;;49.10;21.35;;;2.20;99.90;;;;;;4998900;28;20046;-87
2022/03/01 00:50:16;;;;;;;49.28;21.23;;;2.20;99.90;;;;;;4999113;28;20064;-87
2022/03/01 00:52:41;;;;;;;55.10;22.83;;;2.20;99.90;;;;;;4999043;28;20046;-87
2022/03/01 00:55:08;;;;;;;54.60;22.05;;;2.20;99.90;;;;;;4998999;28;20037;-87
2022/03/01 00:57:33;;;;;;;52.17;22.00;;;2.20;99.90;;;;;;4999131;28;20072;-86
2022/03/01 00:59:59;;;;;;;44.20;19.55;;;2.10;99.90;;;;;;4998894;28;20438;-87
2022/03/01 01:02:25;;;;;;;51.35;21.60;;;2.10;99.90;;;;;;4999018;28;20120;-87
2022/03/01 01:04:51;;;;;;;47.15;20.17;;;2.10;99.90;;;;;;4998601;28;20429;-88
2022/03/01 01:07:16;;;;;;;54.90;21.77;;;2.10;99.90;;;;;;4997876;28;20076;-87
2022/03/01 01:09:42;;;;;;;49.95;20.27;;;2.10;99.90;;;;;;4998500;28;20057;-87
2022/03/01 01:12:09;;;;;;;54.95;20.58;;;2.10;99.90;;;;;;4998931;28;20070;-87
2022/03/01 01:14:35;;;;;;;51.55;21.38;;;2.00;99.90;;;;;;4998591;28;20049;-88
2022/03/01 01:17:00;;;;;;;53.92;22.30;;;2.10;99.90;;;;;;4998633;28;20061;-88
2022/03/01 01:19:26;;;;;;;51.58;21.50;;;2.00;99.90;;;;;;4998442;28;20038;-87
2022/03/01 01:24:36;;;;;;;50.30;22.02;;;2.00;99.90;;;;;;4998382;28;20053;-88
2022/03/01 01:27:02;;;;;;;49.17;21.08;;;2.00;99.90;;;;;;4998510;28;20038;-88
2022/03/01 01:29:28;;;;;;;47.78;19.75;;;2.00;99.90;;;;;;4998536;28;20079;-88
2022/03/01 01:31:54;;;;;;;50.10;21.52;;;2.00;99.90;;;;;;4998102;28;20092;-87
2022/03/01 01:34:19;;;;;;;52.10;23.67;;;2.10;99.90;;;;;;4997968;28;20133;-87
2022/03/01 01:36:45;;;;;;;59.33;21.65;;;2.10;99.90;;;;;;4998124;28;20072;-88
2022/03/01 01:39:11;;;;;;;57.55;22.55;;;2.10;99.90;;;;;;4997948;28;20046;-87
2022/03/01 01:41:36;;;;;;;53.58;21.45;;;2.10;99.90;;;;;;4998075;28;20046;-87
2022/03/01 01:44:06;;;;;;;55.70;22.50;;;2.10;99.90;;;;;;5015392;28;20045;-87
2022/03/01 01:46:32;;;;;;;50.13;21.98;;;2.10;99.90;;;;;;4998111;28;20125;-87
2022/03/01 01:48:58;;;;;;;52.05;22.00;;;2.10;99.90;;;;;;4998035;28;20513;-87
2022/03/01 01:51:24;;;;;;;62.00;22.55;;;2.10;99.90;;;;;;4997810;28;20045;-87
2022/03/01 01:53:51;;;;;;;55.60;23.00;;;2.10;99.90;;;;;;4998060;28;20049;-87
2022/03/01 01:56:16;;;;;;;51.08;21.90;;;2.20;99.90;;;;;;4998058;28;20042;-86
2022/03/01 01:58:42;;;;;;;52.80;22.20;;;2.20;99.90;;;;;;4997833;28;20389;-87
2022/03/01 02:01:08;;;;;;;56.63;22.17;;;2.20;99.90;;;;;;4997844;28;20092;-87
2022/03/01 02:03:35;;;;;;;47.38;20.35;;;2.10;99.90;;;;;;4997553;28;20042;-87
2022/03/01 02:06:01;;;;;;;50.63;21.92;;;2.10;99.90;;;;;;4997582;28;20085;-87
2022/03/01 02:08:30;;;;;;;50.83;21.02;;;2.10;99.90;;;;;;4997509;28;20042;-87
2022/03/01 02:10:57;;;;;;;60.17;22.35;;;2.20;99.90;;;;;;4997515;28;20129;-87
2022/03/01 02:13:23;;;;;;;54.75;23.75;;;2.20;99.90;;;;;;4997330;28;20038;-87
2022/03/01 02:15:50;;;;;;;51.30;21.27;;;2.20;99.90;;;;;;4997564;28;20096;-87
2022/03/01 02:18:17;;;;;;;57.28;22.40;;;2.20;99.90;;;;;;4997561;28;20049;-87
2022/03/01 02:20:43;;;;;;;54.65;23.55;;;2.20;99.90;;;;;;4997208;28;20037;-87
2022/03/01 02:23:09;;;;;;;56.17;22.95;;;2.20;99.90;;;;;;4997562;28;20085;-87
2022/03/01 02:25:35;;;;;;;49.92;21.80;;;2.30;99.90;;;;;;4997204;28;20038;-87
2022/03/01 02:28:00;;;;;;;56.58;23.10;;;2.20;99.90;;;;;;4997006;28;20477;-87
2022/03/01 02:30:26;;;;;;;62.00;23.13;;;2.20;99.90;;;;;;4997268;28;20065;-88
2022/03/01 02:32:52;;;;;;;56.53;22.83;;;2.20;99.90;;;;;;4996925;28;20503;-87
2022/03/01 02:35:18;;;;;;;52.28;21.30;;;2.20;99.90;;;;;;4996911;28;20053;-86
2022/03/01 02:37:44;;;;;;;53.25;22.90;;;2.30;99.90;;;;;;4997084;28;20045;-86
2022/03/01 02:40:11;;;;;;;55.47;22.58;;;2.20;99.90;;;;;;4996906;28;20424;-87
2022/03/01 02:42:38;;;;;;;54.38;23.02;;;2.20;99.90;;;;;;4997032;28;20478;-87
2022/03/01 02:45:05;;;;;;;59.95;23.02;;;2.20;99.90;;;;;;4996767;28;20041;-86
2022/03/01 02:47:31;;;;;;;57.80;22.42;;;2.30;99.90;;;;;;4996852;28;20042;-87
2022/03/01 02:49:56;;;;;;;60.40;22.83;;;2.20;99.90;;;;;;4996624;28;20049;-87
2022/03/01 02:52:22;;;;;;;54.40;22.85;;;2.20;99.90;;;;;;4997078;28;20038;-87
2022/03/01 02:54:48;;;;;;;54.67;22.70;;;2.20;99.90;;;;;;4996495;28;20452;-86
2022/03/01 02:57:13;;;;;;;52.22;21.95;;;2.20;99.90;;;;;;4996671;28;20042;-87
2022/03/01 02:59:39;;;;;;;50.53;22.33;;;2.20;99.90;;;;;;4996843;28;20038;-87
2022/03/01 03:02:05;;;;;;;49.75;23.05;;;2.20;99.90;;;;;;4996892;28;20046;-86
2022/03/01 03:04:31;;;;;;;52.78;21.90;;;2.20;99.90;;;;;;4996889;28;20046;-86
2022/03/01 03:06:56;;;;;;;51.47;22.45;;;2.10;99.90;;;;;;4996799;28;20152;-87
2022/03/01 03:09:23;;;;;;;50.90;21.27;;;2.10;99.90;;;;;;4996497;28;20464;-86
2022/03/01 03:11:49;;;;;;;46.65;21.45;;;2.20;99.90;;;;;;4996382;28;20096;-86
2022/03/01 03:14:15;;;;;;;54.92;23.17;;;2.10;99.90;;;;;;4996396;28;20053;-86
2022/03/01 03:16:41;;;;;;;51.15;21.65;;;2.20;99.90;;;;;;4996430;28;20060;-86
2022/03/01 03:19:07;;;;;;;54.22;21.35;;;2.20;99.90;;;;;;4996450;28;20042;-87
2022/03/01 03:21:33;;;;;;;56.92;22.90;;;2.20;99.90;;;;;;4996440;28;20042;-87
2022/03/01 03:23:59;;;;;;;53.30;21.33;;;2.20;99.90;;;;;;4996350;28;20062;-87
2022/03/01 03:26:25;;;;;;;54.78;22.75;;;2.20;99.90;;;;;;4996190;28;20087;-87
2022/03/01 03:28:51;;;;;;;57.42;24.17;;;2.20;99.90;;;;;;4996174;28;20050;-87
2022/03/01 03:31:17;;;;;;;56.38;21.67;;;2.20;99.90;;;;;;4995780;28;20500;-87
2022/03/01 03:33:43;;;;;;;55.30;23.40;;;2.20;99.90;;;;;;4995009;28;20053;-87
2022/03/01 03:36:09;;;;;;;51.10;21.08;;;2.20;99.90;;;;;;4993342;28;20409;-87
2022/03/01 03:38:34;;;;;;;51.88;23.65;;;2.20;99.90;;;;;;4996300;28;20050;-87
2022/03/01 03:41:00;;;;;;;58.35;22.70;;;2.20;99.90;;;;;;4996359;28;20404;-88
2022/03/01 03:43:26;;;;;;;71.65;28.70;;;2.20;99.90;;;;;;4996547;28;20054;-88
2022/03/01 03:45:51;;;;;;;83.93;33.13;;;2.20;99.90;;;;;;4996417;28;20045;-88
2022/03/01 03:48:17;;;;;;;61.13;26.15;;;2.20;99.90;;;;;;4996053;28;20508;-87
2022/03/01 03:50:43;;;;;;;55.58;24.13;;;2.20;99.90;;;;;;4996106;28;20042;-87
2022/03/01 03:53:09;;;;;;;55.70;24.98;;;2.20;99.90;;;;;;4996187;28;20505;-87
2022/03/01 03:55:35;;;;;;;55.63;24.13;;;2.20;99.90;;;;;;4996116;28;20363;-87
2022/03/01 03:58:00;;;;;;;70.95;27.42;;;2.20;99.90;;;;;;4996222;28;20081;-87
2022/03/01 04:00:26;;;;;;;84.68;29.80;;;2.20;99.90;;;;;;4996230;28;20401;-87
2022/03/01 04:02:52;;;;;;;79.07;29.25;;;2.20;99.90;;;;;;4996010;28;20046;-87
2022/03/01 04:05:18;;;;;;;72.20;27.52;;;2.20;99.90;;;;;;5013650;28;20104;-87
2022/03/01 04:07:45;;;;;;;62.55;26.20;;;2.20;99.90;;;;;;4996052;28;20108;-87
2022/03/01 04:10:12;;;;;;;65.88;28.63;;;2.20;99.90;;;;;;4995806;28;20081;-87
2022/03/01 04:12:39;;;;;;;84.80;31.70;;;2.20;99.90;;;;;;4995797;28;20049;-87
2022/03/01 04:15:06;;;;;;;80.05;30.23;;;2.20;99.90;;;;;;4995716;28;20589;-87
2022/03/01 04:17:32;;;;;;;65.03;26.95;;;2.20;99.90;;;;;;4995904;28;20489;-88
2022/03/01 04:19:58;;;;;;;59.45;25.13;;;2.20;99.90;;;;;;4996122;28;20085;-88
2022/03/01 04:22:24;;;;;;;60.42;26.20;;;2.20;99.90;;;;;;4995896;28;20104;-87
2022/03/01 04:24:50;;;;;;;56.65;25.20;;;2.20;99.90;;;;;;4995970;28;20041;-87
2022/03/01 04:27:17;;;;;;;131.00;43.22;;;2.20;99.90;;;;;;4995740;28;20417;-86
2022/03/01 04:29:43;;;;;;;71.88;27.83;;;2.20;99.90;;;;;;4995841;28;20085;-87
2022/03/01 04:32:09;;;;;;;66.70;30.10;;;2.20;99.90;;;;;;4995692;28;20049;-87
2022/03/01 04:34:35;;;;;;;62.72;27.17;;;2.20;99.90;;;;;;4995398;28;20060;-87
2022/03/01 04:37:01;;;;;;;55.08;26.08;;;2.20;99.90;;;;;;4995858;28;20140;-88
2022/03/01 04:39:29;;;;;;;50.40;23.40;;;2.10;99.90;;;;;;4995837;28;20129;-87
2022/03/01 04:41:55;;;;;;;56.22;24.25;;;2.20;99.90;;;;;;4995539;28;20473;-87
2022/03/01 04:44:20;;;;;;;59.78;23.75;;;2.20;99.90;;;;;;4998645;28;20073;-87
2022/03/01 04:46:46;;;;;;;52.20;24.20;;;2.20;99.90;;;;;;4999284;28;20480;-87
2022/03/01 04:49:12;;;;;;;54.97;24.52;;;2.20;99.90;;;;;;4999041;28;20116;-87
2022/03/01 04:51:37;;;;;;;62.10;27.02;;;2.20;99.90;;;;;;4998753;28;20132;-87
2022/03/01 04:54:03;;;;;;;65.47;25.98;;;2.20;99.90;;;;;;4999158;28;20132;-87
2022/03/01 04:56:29;;;;;;;56.40;25.60;;;2.20;99.90;;;;;;4999079;28;20359;-87
2022/03/01 04:58:54;;;;;;;57.17;25.95;;;2.20;99.90;;;;;;4999059;28;20091;-87
2022/03/01 05:01:20;;;;;;;53.88;23.58;;;2.20;99.90;;;;;;4999174;28;20087;-87
2022/03/01 05:03:46;;;;;;;57.47;23.58;;;2.20;99.90;;;;;;5016386;28;20136;-87
2022/03/01 05:06:12;;;;;;;57.20;23.45;;;2.20;99.90;;;;;;4998804;28;20157;-86
2022/03/01 05:08:37;;;;;;;45.35;23.90;;;2.20;99.90;;;;;;4998560;28;20038;-87
2022/03/01 05:11:03;;;;;;;48.45;23.05;;;2.20;99.90;;;;;;4998802;28;20061;-87
2022/03/01 05:13:29;;;;;;;60.97;25.48;;;2.20;99.90;;;;;;4998627;28;20528;-86
2022/03/01 05:15:55;;;;;;;55.13;23.88;;;2.30;99.90;;;;;;4998589;28;20096;-87
2022/03/01 05:18:21;;;;;;;55.88;24.45;;;2.30;99.90;;;;;;4998578;28;20050;-87
2022/03/01 05:20:50;;;;;;;51.22;23.25;;;2.30;99.90;;;;;;4998346;28;20042;-87
2022/03/01 05:23:16;;;;;;;57.35;22.88;;;2.30;99.90;;;;;;4998278;28;20046;-87
2022/03/01 05:25:43;;;;;;;54.70;24.90;;;2.20;99.90;;;;;;4998574;28;20049;-87
2022/03/01 05:28:09;;;;;;;51.47;21.88;;;2.30;99.90;;;;;;4998298;28;20128;-87
2022/03/01 05:30:35;;;;;;;51.47;24.48;;;2.30;99.90;;;;;;4998572;28;20549;-88
2022/03/01 05:33:01;;;;;;;51.42;22.50;;;2.30;99.90;;;;;;4998011;28;20137;-88
2022/03/01 05:35:29;;;;;;;50.28;22.35;;;2.30;99.90;;;;;;4998028;28;20084;-87
2022/03/01 05:37:57;;;;;;;54.60;23.85;;;2.30;99.90;;;;;;4998331;28;20038;-86
2022/03/01 05:40:26;;;;;;;54.00;23.08;;;2.20;99.90;;;;;;4998217;28;20486;-87
2022/03/01 05:42:53;;;;;;;57.10;24.33;;;2.20;99.90;;;;;;4998004;28;20133;-87
2022/03/01 05:45:20;;;;;;;49.67;22.88;;;2.20;99.90;;;;;;4998371;28;20107;-87
2022/03/01 05:47:45;;;;;;;59.83;24.52;;;2.20;99.90;;;;;;4997899;28;20057;-86
2022/03/01 05:50:12;;;;;;;55.00;23.65;;;2.30;99.90;;;;;;5015274;28;20054;-86
2022/03/01 05:52:38;;;;;;;55.15;22.75;;;2.30;99.90;;;;;;4997753;28;20049;-86
2022/03/01 05:55:06;;;;;;;49.42;22.00;;;2.30;99.90;;;;;;4997723;28;20041;-86
2022/03/01 05:57:32;;;;;;;55.05;24.60;;;2.30;99.90;;;;;;4998030;28;20046;-86
2022/03/01 05:59:58;;;;;;;53.78;23.83;;;2.30;99.90;;;;;;4997533;28;20517;-86
2022/03/01 06:02:24;;;;;;;54.33;23.98;;;2.30;99.90;;;;;;4997550;28;20041;-86
2022/03/01 06:04:50;;;;;;;57.60;23.27;;;2.30;99.90;;;;;;4997515;28;20056;-86
2022/03/01 06:07:15;;;;;;;50.40;20.98;;;2.30;99.90;;;;;;4997435;28;20128;-86
2022/03/01 06:09:41;;;;;;;55.33;24.10;;;2.40;99.90;;;;;;4997610;28;20077;-86
2022/03/01 06:12:07;;;;;;;53.45;22.58;;;2.40;99.90;;;;;;4997471;28;20045;-87
2022/03/01 06:14:33;;;;;;;54.50;22.50;;;2.40;99.90;;;;;;4996857;28;20046;-87
2022/03/01 06:16:58;;;;;;;50.92;23.45;;;2.40;99.90;;;;;;4996849;28;20045;-87
2022/03/01 06:19:24;;;;;;;51.28;21.80;;;2.40;99.90;;;;;;4997074;28;20052;-87
2022/03/01 06:21:52;;;;;;;55.88;24.88;;;2.50;99.90;;;;;;4997077;28;20080;-87
2022/03/01 06:24:17;;;;;;;55.20;23.25;;;2.60;99.90;;;;;;4996981;28;20085;-86
2022/03/01 06:26:43;;;;;;;51.88;21.33;;;2.60;99.90;;;;;;4996906;28;20077;-87
2022/03/01 06:29:09;;;;;;;55.83;23.25;;;2.60;99.90;;;;;;4996779;28;20496;-85
2022/03/01 06:31:35;;;;;;;52.65;23.25;;;2.70;99.90;;;;;;4996890;28;20045;-87
2022/03/01 06:34:00;;;;;;;58.90;24.20;;;2.70;99.90;;;;;;4996712;28;20049;-87
2022/03/01 06:36:26;;;;;;;50.35;23.35;;;2.70;99.90;;;;;;4996848;28;20058;-86
2022/03/01 06:38:52;;;;;;;56.67;22.98;;;2.70;99.90;;;;;;4996714;28;20057;-87
2022/03/01 06:41:18;;;;;;;52.90;22.70;;;2.70;99.90;;;;;;4997017;28;20144;-87
2022/03/01 06:43:44;;;;;;;79.68;29.27;;;2.70;99.90;;;;;;4996771;28;20042;-87
2022/03/01 06:46:10;;;;;;;60.58;24.60;;;2.70;99.90;;;;;;4996627;28;20053;-87
2022/03/01 06:48:36;;;;;;;63.47;26.15;;;2.70;99.90;;;;;;4996676;28;20477;-86
2022/03/01 06:51:03;;;;;;;97.35;31.25;;;2.70;99.90;;;;;;4996732;28;20045;-86
2022/03/01 06:53:29;;;;;;;83.68;30.52;;;2.70;99.90;;;;;;4996359;28;20057;-86
2022/03/01 06:55:55;;;;;;;133.23;41.50;;;2.70;99.90;;;;;;4996464;28;20050;-86
2022/03/01 06:58:21;;;;;;;104.80;36.92;;;2.80;99.90;;;;;;4996700;28;20132;-87
2022/03/01 07:00:47;;;;;;;87.22;34.50;;;2.80;99.90;;;;;;4996733;28;20141;-85
2022/03/01 07:03:12;;;;;;;69.03;29.27;;;2.80;99.90;;;;;;4996388;28;20042;-85
2022/03/01 07:05:38;;;;;;;63.92;27.65;;;2.80;99.90;;;;;;4995790;28;20042;-86
2022/03/01 07:08:04;;;;;;;57.08;25.40;;;2.80;99.90;;;;;;5014298;28;20119;-87
2022/03/01 07:10:30;;;;;;;54.80;23.50;;;2.80;99.90;;;;;;4996618;28;20046;-86
2022/03/01 07:12:56;;;;;;;51.10;23.02;;;2.90;99.90;;;;;;4984107;28;20137;-86
2022/03/01 07:15:21;;;;;;;53.33;23.27;;;2.90;99.90;;;;;;4996127;28;20524;-86
2022/03/01 07:17:47;;;;;;;55.08;23.55;;;3.00;99.90;;;;;;4995971;28;20069;-86
2022/03/01 07:20:14;;;;;;;50.38;23.95;;;3.00;99.90;;;;;;4996071;28;20049;-87
2022/03/01 07:22:40;;;;;;;50.00;20.83;;;3.10;99.90;;;;;;4996038;28;20100;-85
2022/03/01 07:25:06;;;;;;;54.22;23.95;;;3.10;99.90;;;;;;4996000;28;20054;-89
2022/03/01 07:27:32;;;;;;;52.97;24.10;;;3.20;99.90;;;;;;4995818;28;20076;-88
2022/03/01 07:29:58;;;;;;;59.80;25.10;;;3.20;99.90;;;;;;4996155;28;20088;-88
2022/03/01 07:32:24;;;;;;;57.80;23.73;;;3.20;99.90;;;;;;4995956;28;20497;-88
2022/03/01 07:34:50;;;;;;;60.65;24.75;;;3.20;99.90;;;;;;4995755;28;20118;-87
2022/03/01 07:37:16;;;;;;;55.70;23.40;;;3.20;99.90;;;;;;4995768;28;20042;-87
2022/03/01 07:39:42;;;;;;;52.55;23.50;;;3.30;99.90;;;;;;4995735;28;20065;-87
2022/03/01 07:42:08;;;;;;;62.38;24.38;;;3.30;99.90;;;;;;4995598;28;20436;-87
2022/03/01 07:44:37;;;;;;;59.70;25.55;;;3.30;99.90;;;;;;4996009;28;20497;-86
2022/03/01 07:47:07;;;;;;;54.45;23.25;;;3.30;99.90;;;;;;4995990;28;20046;-88
2022/03/01 07:49:34;;;;;;;54.63;24.38;;;3.30;99.90;;;;;;4996203;28;20073;-87
2022/03/01 07:52:00;;;;;;;49.10;22.50;;;3.30;99.90;;;;;;4996159;28;20402;-88
2022/03/01 07:54:29;;;;;;;56.05;23.20;;;3.40;99.90;;;;;;4996992;28;20041;-95
2022/03/01 07:56:55;;;;;;;53.20;24.75;;;3.40;99.90;;;;;;4996134;28;20506;-86
2022/03/01 07:59:21;;;;;;;56.97;24.17;;;3.40;99.90;;;;;;4996071;28;20054;-87
2022/03/01 08:01:46;;;;;;;57.33;25.33;;;3.40;99.90;;;;;;4997553;28;20054;-90
2022/03/01 08:04:12;;;;;;;53.17;21.95;;;3.40;99.90;;;;;;4997771;28;20042;-89
2022/03/01 08:06:38;;;;;;;54.40;24.25;;;3.40;99.90;;;;;;4995946;28;20437;-89
2022/03/01 08:09:03;;;;;;;50.78;23.58;;;3.40;99.90;;;;;;4995634;28;20554;-89
2022/03/01 08:11:29;;;;;;;54.92;23.52;;;3.50;99.90;;;;;;4995532;28;20073;-90
2022/03/01 08:13:54;;;;;;;55.38;23.48;;;3.50;99.90;;;;;;4996007;28;20046;-89
2022/03/01 08:16:20;;;;;;;58.47;23.70;;;3.50;99.90;;;;;;4995956;28;20391;-87
2022/03/01 08:18:46;;;;;;;57.58;24.98;;;3.60;99.90;;;;;;4999191;28;20192;-89
2022/03/01 08:21:12;;;;;;;55.67;25.05;;;3.60;99.90;;;;;;4999185;28;20042;-88
2022/03/01 08:23:38;;;;;;;55.42;24.20;;;3.60;99.90;;;;;;4999709;28;20049;-93
2022/03/01 08:26:04;;;;;;;66.57;26.85;;;3.60;99.90;;;;;;4999346;28;20054;-88
2022/03/01 08:28:31;;;;;;;60.70;24.08;;;3.70;99.90;;;;;;4999754;28;20049;-87
2022/03/01 08:30:57;;;;;;;55.53;23.35;;;3.70;99.90;;;;;;4999181;28;20092;-89
2022/03/01 08:33:24;;;;;;;57.95;23.50;;;3.70;99.90;;;;;;4997720;28;20064;-85
2022/03/01 08:35:50;;;;;;;52.10;23.50;;;3.80;99.90;;;;;;5016969;28;20057;-92
2022/03/01 08:38:17;;;;;;;56.63;24.77;;;3.80;99.90;;;;;;4999480;28;20046;-90
2022/03/01 08:40:43;;;;;;;54.67;23.88;;;3.90;99.90;;;;;;4999264;28;20065;-90
2022/03/01 08:43:10;;;;;;;56.53;25.17;;;3.90;99.90;;;;;;4998894;28;20042;-90
2022/03/01 08:45:36;;;;;;;58.67;25.60;;;4.00;99.90;;;;;;4999343;28;20053;-92
2022/03/01 08:48:03;;;;;;;62.70;25.50;;;4.00;99.90;;;;;;4998910;28;20101;-88
2022/03/01 08:50:30;;;;;;;59.20;25.10;;;4.10;99.90;;;;;;4999166;28;20042;-88
2022/03/01 08:52:55;;;;;;;53.63;24.90;;;4.10;99.90;;;;;;5000850;28;20050;-96
2022/03/01 08:55:21;;;;;;;60.92;25.58;;;4.20;99.90;;;;;;4990595;28;20057;-87
2022/03/01 08:57:47;;;;;;;57.28;24.38;;;4.20;99.90;;;;;;4994507;28;20046;-88
2022/03/01 09:00:14;;;;;;;58.13;25.35;;;4.20;99.90;;;;;;5016557;28;20053;-91
2022/03/01 09:02:43;;;;;;;60.60;26.52;;;4.30;99.90;;;;;;5002883;28;20077;-96
2022/03/01 09:05:09;;;;;;;62.38;24.85;;;4.30;99.90;;;;;;5019150;28;20136;-91
2022/03/01 09:07:35;;;;;;;51.58;23.60;;;4.30;99.90;;;;;;5000018;28;20125;-90
2022/03/01 09:10:03;;;;;;;52.90;24.30;;;4.40;99.90;;;;;;4998392;28;20370;-90
2022/03/01 09:12:29;;;;;;;53.05;23.33;;;4.30;99.90;;;;;;4995094;28;20042;-91
2022/03/01 09:14:55;;;;;;;67.82;25.70;;;4.40;99.90;;;;;;4998400;28;20067;-91
2022/03/01 09:17:21;;;;;;;56.20;24.20;;;4.40;99.90;;;;;;4998382;28;20492;-91
2022/03/01 09:19:46;;;;;;;62.95;26.33;;;4.40;99.90;;;;;;4998600;28;20222;-89
2022/03/01 09:22:13;;;;;;;60.47;26.17;;;4.40;99.90;;;;;;4997953;28;20044;-90
2022/03/01 09:24:40;;;;;;;67.60;27.08;;;4.40;99.90;;;;;;5003094;28;20103;-95
2022/03/01 09:27:06;;;;;;;58.17;23.73;;;4.40;99.90;;;;;;4998433;28;20474;-95
2022/03/01 09:29:32;;;;;;;61.45;26.55;;;4.50;99.90;;;;;;5009624;28;20041;-93
2022/03/01 09:31:58;;;;;;;63.50;24.90;;;4.50;99.90;;;;;;5013266;28;20409;-91
2022/03/01 09:34:24;;;;;;;59.45;25.38;;;4.60;99.90;;;;;;4994043;28;20494;-91
2022/03/01 09:36:50;;;;;;;60.35;23.63;;;4.60;99.90;;;;;;4997647;28;20041;-90
2022/03/01 09:39:16;;;;;;;61.75;27.05;;;4.70;99.90;;;;;;4998146;28;20042;-90
2022/03/01 09:41:41;;;;;;;67.05;28.20;;;4.70;99.90;;;;;;4997936;28;20413;-91
2022/03/01 09:44:08;;;;;;;64.88;28.20;;;4.80;99.90;;;;;;4997886;28;20038;-90
2022/03/01 09:46:34;;;;;;;60.47;25.35;;;4.80;99.90;;;;;;4997562;28;20100;-87
2022/03/01 09:48:59;;;;;;;65.03;26.73;;;4.90;99.90;;;;;;4995381;28;20153;-87
2022/03/01 09:51:26;;;;;;;61.35;25.65;;;4.90;99.90;;;;;;4996442;28;20046;-88
2022/03/01 09:53:53;;;;;;;58.92;25.33;;;5.00;99.90;;;;;;4996527;28;20038;-87
2022/03/01 09:56:19;;;;;;;62.97;26.88;;;5.00;99.90;;;;;;4997731;28;20077;-86
2022/03/01 09:58:46;;;;;;;72.38;25.95;;;5.10;99.90;;;;;;4997420;28;20048;-87
2022/03/01 10:01:14;;;;;;;57.45;25.80;;;5.20;99.90;;;;;;4997614;28;20060;-86
2022/03/01 10:03:40;;;;;;;62.78;24.90;;;5.20;99.90;;;;;;5008531;28;20045;-87
2022/03/01 10:06:07;;;;;;;60.38;26.13;;;5.20;99.90;;;;;;5016784;28;20127;-87
2022/03/01 10:08:33;;;;;;;66.20;26.55;;;5.20;99.90;;;;;;5016750;28;20048;-84
2022/03/01 10:11:03;;;;;;;60.15;25.27;;;5.20;99.90;;;;;;5035967;28;20045;-93
2022/03/01 10:13:31;;;;;;;61.75;26.23;;;5.20;99.90;;;;;;5019071;28;20050;-89
2022/03/01 10:16:14;;;;;;;65.07;26.65;;;5.20;99.90;;;;;;5002646;28;20133;-90
2022/03/01 10:18:41;;;;;;;;;;;5.20;99.90;;;;;;5000306;28;20437;-96
2022/03/01 10:21:10;;;;;;;63.80;26.67;;;5.30;99.90;;;;;;4999491;28;19929;-91
2022/03/01 10:23:38;;;;;;;67.65;27.33;;;5.30;99.90;;;;;;4998970;28;20052;-96
2022/03/01 10:26:13;;;;;;;60.38;27.45;;;5.40;99.90;;;;;;4998954;28;20038;-93
2022/03/01 10:28:39;;;;;;;62.50;27.52;;;5.40;99.90;;;;;;4998221;28;20052;-94
2022/03/01 10:31:30;;;;;;;59.42;27.42;;;5.40;99.90;;;;;;4997535;28;20050;-94
2022/03/01 10:34:11;;;;;;;59.22;26.25;;;5.40;99.90;;;;;;4979790;28;20057;-96
2022/03/01 10:36:46;;;;;;;60.00;25.45;;;5.40;99.90;;;;;;4981019;28;20050;-95
2022/03/01 10:39:21;;;;;;;65.70;28.20;;;5.40;99.90;;;;;;4980238;28;20050;-92
2022/03/01 10:41:49;;;;;;;61.72;27.45;;;5.50;99.90;;;;;;4977759;28;20126;-95
2022/03/01 10:44:20;;;;;;;71.63;29.75;;;5.50;99.90;;;;;;4994177;28;20059;-95
2022/03/01 10:46:53;;;;;;;69.97;33.53;;;5.60;99.90;;;;;;5008664;28;20481;-94
2022/03/01 10:49:27;;;;;;;69.25;32.08;;;5.50;99.90;;;;;;5003209;28;20052;-92
2022/03/01 10:52:03;;;;;;;76.57;31.98;;;5.50;99.90;;;;;;4998967;28;20042;-87
2022/03/01 10:54:44;;;;;;;76.00;31.95;;;5.50;99.90;;;;;;4995338;28;20045;-85
2022/03/01 10:57:19;;;;;;;64.93;30.08;;;5.60;99.90;;;;;;4994944;28;20041;-88
2022/03/01 10:59:46;;;;;;;78.45;35.58;;;5.60;99.90;;;;;;4996076;28;20049;-88
2022/03/01 11:02:12;;;;;;;91.50;41.72;;;5.60;99.90;;;;;;4996311;28;20153;-88
2022/03/01 11:04:38;;;;;;;129.32;60.45;;;5.60;99.90;;;;;;5014000;28;20116;-88
2022/03/01 11:07:05;;;;;;;74.30;31.30;;;5.60;99.90;;;;;;4996219;28;20397;-88
2022/03/01 11:09:33;;;;;;;70.97;32.13;;;5.60;99.90;;;;;;4996220;28;20042;-86
2022/03/01 11:12:00;;;;;;;66.20;28.92;;;5.60;99.90;;;;;;5008164;28;20504;-86
2022/03/01 11:14:31;;;;;;;69.65;30.88;;;5.60;99.90;;;;;;5016183;28;20120;-92
2022/03/01 11:17:15;;;;;;;68.07;31.10;;;5.60;99.90;;;;;;5016379;28;20128;-93
2022/03/01 11:19:50;;;;;;;69.10;31.08;;;5.60;99.90;;;;;;5016792;28;20049;-89
2022/03/01 11:22:41;;;;;;;72.88;30.40;;;5.50;99.90;;;;;;5015347;28;20041;-90
2022/03/01 11:25:18;;;;;;;66.35;31.17;;;5.50;99.90;;;;;;4978996;28;20423;-86
2022/03/01 11:27:48;;;;;;;72.93;29.48;;;5.50;99.90;;;;;;5015664;28;20389;-88
2022/03/01 11:30:15;;;;;;;79.85;31.38;;;5.40;99.90;;;;;;5015765;28;20056;-87
2022/03/01 11:32:45;;;;;;;75.05;31.73;;;5.50;99.90;;;;;;5015746;28;20045;-88
2022/03/01 11:35:23;;;;;;;84.07;32.17;;;5.50;99.90;;;;;;5010010;28;20064;-83
2022/03/01 11:38:08;;;;;;;82.85;33.50;;;5.50;99.90;;;;;;5025502;28;20041;-85
2022/03/01 11:40:37;;;;;;;78.53;32.20;;;5.50;99.90;;;;;;5015427;28;20038;-82
2022/03/01 11:43:23;;;;;;;81.22;34.35;;;5.50;99.90;;;;;;5033299;28;20045;-82
2022/03/01 11:45:52;;;;;;;79.68;32.65;;;5.60;99.90;;;;;;5032824;28;20046;-82
2022/03/01 11:48:20;;;;;;;81.40;33.83;;;5.60;99.90;;;;;;5015233;28;20504;-84
2022/03/01 11:50:49;;;;;;;77.35;35.40;;;5.60;99.90;;;;;;5033025;28;20050;-84
2022/03/01 11:53:17;;;;;;;85.65;33.65;;;5.60;99.90;;;;;;5018110;28;20049;-83
2022/03/01 11:55:50;;;;;;;81.72;34.08;;;5.60;99.90;;;;;;5019439;28;20061;-83
2022/03/01 11:58:17;;;;;;;88.32;33.83;;;5.60;99.90;;;;;;5036751;28;20616;-83
2022/03/01 12:00:43;;;;;;;88.03;35.05;;;5.60;99.90;;;;;;5019329;28;20053;-80
2022/03/01 12:03:25;;;;;;;86.88;38.20;;;5.60;99.90;;;;;;5019319;28;20129;-81
2022/03/01 12:05:53;;;;;;;84.60;34.65;;;5.60;99.90;;;;;;5036739;28;20080;-82
2022/03/01 12:08:20;;;;;;;93.90;36.50;;;5.60;99.90;;;;;;5018761;28;20057;-82
2022/03/01 12:10:54;;;;;;;86.38;36.67;;;5.60;99.90;;;;;;5036487;28;20049;-80
2022/03/01 12:13:20;;;;;;;83.45;33.97;;;5.60;99.90;;;;;;5018914;28;20072;-79
2022/03/01 12:15:56;;;;;;;91.53;38.70;;;5.50;99.90;;;;;;5036667;28;20052;-80
2022/03/01 12:18:29;;;;;;;97.32;35.95;;;5.60;99.90;;;;;;5036820;28;20056;-79
2022/03/01 12:21:00;;;;;;;94.30;37.28;;;5.60;99.90;;;;;;5018962;28;20045;-79
2022/03/01 12:23:29;;;;;;;94.63;35.97;;;5.60;99.90;;;;;;5036898;28;20038;-82
2022/03/01 12:25:55;;;;;;;96.50;38.60;;;5.60;99.90;;;;;;5018712;28;20436;-83
2022/03/01 12:28:22;;;;;;;96.28;39.00;;;5.70;99.90;;;;;;5036581;28;20037;-83
2022/03/01 12:30:48;;;;;;;96.43;38.83;;;5.70;99.90;;;;;;5018596;28;20045;-84
2022/03/01 12:33:17;;;;;;;95.95;35.97;;;5.70;99.90;;;;;;5036197;28;20374;-83
2022/03/01 12:35:54;;;;;;;92.18;37.17;;;5.70;99.90;;;;;;5006000;28;20049;-83
2022/03/01 12:38:19;;;;;;;90.72;36.83;;;5.70;99.90;;;;;;4998852;28;20489;-83
2022/03/01 12:40:46;;;;;;;94.88;36.40;;;5.70;99.90;;;;;;4998320;28;20040;-83